Boca Chica, Texas
Current Conditions -  °F | °C
As of 8:53 PM on Wednesday 22 Oct 2014 (Local Time) from KBRO Reporting Station
Clear Clear  
Wind Chill: 75°   Ceiling: Unl
Heat Index: 75°   Visibility: 10mi
Dew Point: 68°   Wind: 5mph
Humidity: 79%   Direction: 50°NE
Pressure: 30.01"   Gusts: NA
Location:  26.0002°N, 97.5729°W
Report Text: KBRO 230153Z 05004KT 10SM CLR 24/20 A3001 RMK AO2 SLP159 T02390200
Loading
Personal Weather Stations






























Interactive Weather Map
Tropical Storm Tracking
New forecast layout! Learn more

10-Day Weather Forecast

Advertisements
Track Severe Weather on mobile